sensor_id;sensor_type;location;lat;lon;timestamp;pressure;altitude;pressure_sealevel;temperature;humidity
70015;BME280;57358;51.094;6.760;2022-09-09T00:04:41;100204.69;;;14.09;100.00
70015;BME280;57358;51.094;6.760;2022-09-09T00:09:31;100383.25;;;15.16;100.00
70015;BME280;57358;51.094;6.760;2022-09-09T00:12:13;100385.56;;;15.32;100.00
70015;BME280;57358;51.094;6.760;2022-09-09T00:17:30;100376.56;;;15.24;100.00
70015;BME280;57358;51.094;6.760;2022-09-09T00:20:01;100190.38;;;14.01;100.00
70015;BME280;57358;51.094;6.760;2022-09-09T00:22:30;100376.56;;;15.24;100.00
70015;BME280;57358;51.094;6.760;2022-09-09T00:27:42;100343.34;;;15.08;100.00
70015;BME280;57358;51.094;6.760;2022-09-09T00:32:37;100346.13;;;15.18;100.00
70015;BME280;57358;51.094;6.760;2022-09-09T00:37:37;100380.88;;;15.47;100.00
70015;BME280;57358;51.094;6.760;2022-09-09T00:40:18;100392.06;;;15.51;100.00
70015;BME280;57358;51.094;6.760;2022-09-09T00:42:54;100376.91;;;15.53;100.00
70015;BME280;57358;51.094;6.760;2022-09-09T00:48:10;100371.03;;;15.49;100.00
70015;BME280;57358;51.094;6.760;2022-09-09T00:50:45;100367.78;;;15.46;100.00
70015;BME280;57358;51.094;6.760;2022-09-09T00:56:12;100356.59;;;15.31;100.00
70015;BME280;57358;51.094;6.760;2022-09-09T00:58:49;100384.97;;;15.40;100.00
70015;BME280;57358;51.094;6.760;2022-09-09T01:01:22;100371.00;;;15.27;100.00
70015;BME280;57358;51.094;6.760;2022-09-09T01:03:57;100372.31;;;15.21;100.00
70015;BME280;57358;51.094;6.760;2022-09-09T01:06:36;100381.34;;;15.19;100.00
70015;BME280;57358;51.094;6.760;2022-09-09T01:09:26;100370.50;;;15.10;100.00
70015;BME280;57358;51.094;6.760;2022-09-09T01:12:16;100379.13;;;15.01;100.00
70015;BME280;57358;51.094;6.760;2022-09-09T01:14:52;100374.31;;;14.95;100.00
70015;BME280;57358;51.094;6.760;2022-09-09T01:26:08;100365.84;;;14.67;100.00
70015;BME280;57358;51.094;6.760;2022-09-09T01:28:37;100149.56;;;13.34;100.00
70015;BME280;57358;51.094;6.760;2022-09-09T01:31:06;100372.28;;;14.63;100.00
70015;BME280;57358;51.094;6.760;2022-09-09T01:33:35;100235.78;;;13.69;100.00
70015;BME280;57358;51.094;6.760;2022-09-09T01:38:35;100322.78;;;14.54;100.00
70015;BME280;57358;51.094;6.760;2022-09-09T01:41:02;100359.16;;;14.86;100.00
70015;BME280;57358;51.094;6.760;2022-09-09T01:43:29;100171.25;;;13.86;100.00
70015;BME280;57358;51.094;6.760;2022-09-09T01:45:59;100343.31;;;14.97;100.00
70015;BME280;57358;51.094;6.760;2022-09-09T01:48:27;100221.09;;;14.02;100.00
70015;BME280;57358;51.094;6.760;2022-09-09T01:50:54;100281.28;;;14.56;100.00
70015;BME280;57358;51.094;6.760;2022-09-09T01:53:21;100359.69;;;15.02;100.00
70015;BME280;57358;51.094;6.760;2022-09-09T01:58:37;100359.94;;;15.10;100.00
70015;BME280;57358;51.094;6.760;2022-09-09T02:01:24;100351.66;;;15.15;100.00
70015;BME280;57358;51.094;6.760;2022-09-09T02:03:56;100334.72;;;15.18;100.00
70015;BME280;57358;51.094;6.760;2022-09-09T02:06:27;100347.22;;;15.27;100.00
70015;BME280;57358;51.094;6.760;2022-09-09T02:08:57;100352.41;;;15.28;100.00
70015;BME280;57358;51.094;6.760;2022-09-09T02:11:27;100131.59;;;13.99;100.00
70015;BME280;57358;51.094;6.760;2022-09-09T02:14:01;100267.91;;;14.82;100.00
70015;BME280;57358;51.094;6.760;2022-09-09T02:16:35;100201.53;;;14.40;100.00
70015;BME280;57358;51.094;6.760;2022-09-09T02:21:52;100345.91;;;15.32;100.00
70015;BME280;57358;51.094;6.760;2022-09-09T02:24:21;100340.72;;;15.31;100.00
70015;BME280;57358;51.094;6.760;2022-09-09T02:26:51;100348.06;;;15.27;100.00
70015;BME280;57358;51.094;6.760;2022-09-09T02:29:25;100331.38;;;15.15;100.00
70015;BME280;57358;51.094;6.760;2022-09-09T02:31:53;100352.38;;;15.17;100.00
70015;BME280;57358;51.094;6.760;2022-09-09T02:34:23;100342.38;;;15.09;100.00
70015;BME280;57358;51.094;6.760;2022-09-09T02:36:53;100345.78;;;15.11;100.00
70015;BME280;57358;51.094;6.760;2022-09-09T02:39:21;100351.06;;;15.11;100.00
70015;BME280;57358;51.094;6.760;2022-09-09T02:41:47;100325.56;;;14.99;100.00
70015;BME280;57358;51.094;6.760;2022-09-09T02:44:16;100114.72;;;13.66;100.00
70015;BME280;57358;51.094;6.760;2022-09-09T02:47:00;100339.75;;;15.09;100.00
70015;BME280;57358;51.094;6.760;2022-09-09T02:52:08;100337.34;;;15.06;100.00
70015;BME280;57358;51.094;6.760;2022-09-09T02:54:39;100266.63;;;14.63;100.00
70015;BME280;57358;51.094;6.760;2022-09-09T02:57:10;100327.72;;;15.05;100.00
70015;BME280;57358;51.094;6.760;2022-09-09T02:59:39;100336.50;;;15.06;100.00
70015;BME280;57358;51.094;6.760;2022-09-09T03:02:06;100313.44;;;14.96;100.00
70015;BME280;57358;51.094;6.760;2022-09-09T03:04:34;100309.22;;;14.94;100.00
70015;BME280;57358;51.094;6.760;2022-09-09T03:07:01;100332.06;;;15.06;100.00
70015;BME280;57358;51.094;6.760;2022-09-09T03:09:30;100325.94;;;15.06;100.00
70015;BME280;57358;51.094;6.760;2022-09-09T03:11:57;100084.03;;;13.65;100.00
70015;BME280;57358;51.094;6.760;2022-09-09T03:14:23;100326.06;;;15.04;100.00
70015;BME280;57358;51.094;6.760;2022-09-09T03:16:52;100333.16;;;15.04;100.00
70015;BME280;57358;51.094;6.760;2022-09-09T03:19:19;100325.22;;;15.04;100.00
70015;BME280;57358;51.094;6.760;2022-09-09T03:21:46;100102.03;;;13.71;100.00
70015;BME280;57358;51.094;6.760;2022-09-09T03:24:13;100314.88;;;15.01;100.00
70015;BME280;57358;51.094;6.760;2022-09-09T03:26:41;100322.31;;;15.07;100.00
70015;BME280;57358;51.094;6.760;2022-09-09T03:29:11;100035.06;;;13.38;100.00
70015;BME280;57358;51.094;6.760;2022-09-09T03:31:39;100333.50;;;15.10;100.00
70015;BME280;57358;51.094;6.760;2022-09-09T03:34:06;100284.94;;;14.89;100.00
70015;BME280;57358;51.094;6.760;2022-09-09T03:36:32;100344.69;;;15.14;100.00
70015;BME280;57358;51.094;6.760;2022-09-09T03:38:59;100335.53;;;15.07;100.00
70015;BME280;57358;51.094;6.760;2022-09-09T03:41:26;100319.34;;;15.11;100.00
70015;BME280;57358;51.094;6.760;2022-09-09T03:43:53;100318.38;;;15.12;100.00
70015;BME280;57358;51.094;6.760;2022-09-09T03:46:21;100245.50;;;14.63;100.00
70015;BME280;57358;51.094;6.760;2022-09-09T03:48:48;100316.72;;;15.11;100.00
70015;BME280;57358;51.094;6.760;2022-09-09T03:51:15;100315.84;;;15.11;100.00
70015;BME280;57358;51.094;6.760;2022-09-09T03:53:42;100322.81;;;15.12;100.00
70015;BME280;57358;51.094;6.760;2022-09-09T03:56:09;100207.28;;;14.45;100.00
70015;BME280;57358;51.094;6.760;2022-09-09T03:58:36;100315.94;;;15.09;100.00
70015;BME280;57358;51.094;6.760;2022-09-09T04:01:06;100318.59;;;15.09;100.00
70015;BME280;57358;51.094;6.760;2022-09-09T04:03:35;100322.81;;;15.12;100.00
70015;BME280;57358;51.094;6.760;2022-09-09T04:06:03;100314.28;;;15.08;100.00
70015;BME280;57358;51.094;6.760;2022-09-09T04:08:30;100321.25;;;15.09;100.00
70015;BME280;57358;51.094;6.760;2022-09-09T04:11:01;100320.78;;;15.04;100.00
70015;BME280;57358;51.094;6.760;2022-09-09T04:13:33;100332.56;;;15.11;100.00
70015;BME280;57358;51.094;6.760;2022-09-09T04:16:01;100311.88;;;15.05;100.00
70015;BME280;57358;51.094;6.760;2022-09-09T04:18:28;100305.53;;;15.08;100.00
70015;BME280;57358;51.094;6.760;2022-09-09T04:20:55;100099.44;;;13.82;100.00
70015;BME280;57358;51.094;6.760;2022-09-09T04:23:25;100311.16;;;15.14;100.00
70015;BME280;57358;51.094;6.760;2022-09-09T04:25:53;100322.47;;;15.16;100.00
70015;BME280;57358;51.094;6.760;2022-09-09T04:28:23;100311.88;;;15.16;100.00
70015;BME280;57358;51.094;6.760;2022-09-09T04:30:50;100313.59;;;15.18;100.00
70015;BME280;57358;51.094;6.760;2022-09-09T04:33:16;100130.91;;;14.08;100.00
70015;BME280;57358;51.094;6.760;2022-09-09T04:35:48;100312.59;;;15.19;100.00
70015;BME280;57358;51.094;6.760;2022-09-09T04:38:15;100321.00;;;15.12;100.00
70015;BME280;57358;51.094;6.760;2022-09-09T04:40:50;100217.44;;;14.62;100.00
70015;BME280;57358;51.094;6.760;2022-09-09T04:43:19;100312.72;;;15.17;100.00
70015;BME280;57358;51.094;6.760;2022-09-09T04:45:50;100311.88;;;15.16;100.00
70015;BME280;57358;51.094;6.760;2022-09-09T04:48:18;100313.69;;;15.16;100.00
70015;BME280;57358;51.094;6.760;2022-09-09T04:50:53;100308.31;;;15.18;100.00
70015;BME280;57358;51.094;6.760;2022-09-09T04:53:20;100288.06;;;15.05;100.00
70015;BME280;57358;51.094;6.760;2022-09-09T04:55:46;100307.22;;;15.20;100.00
70015;BME280;57358;51.094;6.760;2022-09-09T04:58:13;100318.63;;;15.21;100.00
70015;BME280;57358;51.094;6.760;2022-09-09T05:00:40;100308.31;;;15.18;100.00
70015;BME280;57358;51.094;6.760;2022-09-09T05:03:06;100306.59;;;15.16;100.00
70015;BME280;57358;51.094;6.760;2022-09-09T05:05:35;100313.09;;;15.24;100.00
70015;BME280;57358;51.094;6.760;2022-09-09T05:08:03;100313.81;;;15.26;100.00
70015;BME280;57358;51.094;6.760;2022-09-09T05:10:31;100313.22;;;15.33;100.00
70015;BME280;57358;51.094;6.760;2022-09-09T05:12:57;100310.34;;;15.36;100.00
70015;BME280;57358;51.094;6.760;2022-09-09T05:15:24;100274.41;;;15.00;100.00
70015;BME280;57358;51.094;6.760;2022-09-09T05:17:50;100303.00;;;15.40;100.00
70015;BME280;57358;51.094;6.760;2022-09-09T05:20:18;100309.50;;;15.36;100.00
70015;BME280;57358;51.094;6.760;2022-09-09T05:22:45;100137.19;;;14.41;100.00
70015;BME280;57358;51.094;6.760;2022-09-09T05:25:11;100281.50;;;15.33;100.00
70015;BME280;57358;51.094;6.760;2022-09-09T05:27:38;100299.03;;;15.46;100.00
70015;BME280;57358;51.094;6.760;2022-09-09T05:30:04;100296.03;;;15.50;100.00
70015;BME280;57358;51.094;6.760;2022-09-09T05:32:31;100294.22;;;15.51;100.00
70015;BME280;57358;51.094;6.760;2022-09-09T05:35:00;100294.94;;;15.53;100.00
70015;BME280;57358;51.094;6.760;2022-09-09T05:37:27;100300.09;;;15.54;100.00
70015;BME280;57358;51.094;6.760;2022-09-09T05:39:54;100302.63;;;15.56;100.00
70015;BME280;57358;51.094;6.760;2022-09-09T05:42:20;100292.16;;;15.54;100.00
70015;BME280;57358;51.094;6.760;2022-09-09T05:44:46;100297.09;;;15.59;100.00
70015;BME280;57358;51.094;6.760;2022-09-09T05:47:13;100274.88;;;15.50;100.00
70015;BME280;57358;51.094;6.760;2022-09-09T05:49:40;100298.66;;;15.73;100.00
70015;BME280;57358;51.094;6.760;2022-09-09T05:52:07;100305.16;;;15.80;100.00
70015;BME280;57358;51.094;6.760;2022-09-09T05:54:33;100304.66;;;15.86;100.00
70015;BME280;57358;51.094;6.760;2022-09-09T05:57:00;100309.19;;;15.95;100.00
70015;BME280;57358;51.094;6.760;2022-09-09T05:59:26;100298.38;;;15.99;100.00
70015;BME280;57358;51.094;6.760;2022-09-09T06:01:52;100302.94;;;16.08;100.00
70015;BME280;57358;51.094;6.760;2022-09-09T06:04:19;100142.50;;;14.97;100.00
70015;BME280;57358;51.094;6.760;2022-09-09T06:06:50;100322.38;;;16.18;100.00
70015;BME280;57358;51.094;6.760;2022-09-09T06:09:16;100306.59;;;16.28;100.00
70015;BME280;57358;51.094;6.760;2022-09-09T06:11:43;100301.72;;;16.33;100.00
70015;BME280;57358;51.094;6.760;2022-09-09T06:14:09;100304.25;;;16.34;100.00
70015;BME280;57358;51.094;6.760;2022-09-09T06:16:36;100118.59;;;15.10;100.00
70015;BME280;57358;51.094;6.760;2022-09-09T06:19:04;100103.56;;;15.10;100.00
70015;BME280;57358;51.094;6.760;2022-09-09T06:21:32;100161.06;;;15.41;100.00
70015;BME280;57358;51.094;6.760;2022-09-09T06:23:59;100302.56;;;16.33;100.00
70015;BME280;57358;51.094;6.760;2022-09-09T06:26:31;100305.09;;;16.35;100.00
70015;BME280;57358;51.094;6.760;2022-09-09T06:28:59;100307.50;;;16.38;100.00
70015;BME280;57358;51.094;6.760;2022-09-09T06:31:27;100308.34;;;16.39;100.00
70015;BME280;57358;51.094;6.760;2022-09-09T06:33:58;100317.22;;;16.38;100.00
70015;BME280;57358;51.094;6.760;2022-09-09T06:36:30;100337.34;;;16.40;100.00
70015;BME280;57358;51.094;6.760;2022-09-09T06:38:57;100311.31;;;16.45;100.00
70015;BME280;57358;51.094;6.760;2022-09-09T06:41:27;100307.91;;;16.54;100.00
70015;BME280;57358;51.094;6.760;2022-09-09T06:43:54;100311.06;;;16.69;100.00
70015;BME280;57358;51.094;6.760;2022-09-09T06:46:26;100312.91;;;16.90;100.00
70015;BME280;57358;51.094;6.760;2022-09-09T06:48:55;100302.44;;;17.19;100.00
70015;BME280;57358;51.094;6.760;2022-09-09T06:51:23;100288.03;;;17.43;100.00
70015;BME280;57358;51.094;6.760;2022-09-09T06:53:53;100289.38;;;17.78;100.00
70015;BME280;57358;51.094;6.760;2022-09-09T06:56:23;100291.28;;;18.06;100.00
70015;BME280;57358;51.094;6.760;2022-09-09T06:58:52;100291.41;;;18.34;100.00
70015;BME280;57358;51.094;6.760;2022-09-09T07:01:24;100279.13;;;18.43;98.55
70015;BME280;57358;51.094;6.760;2022-09-09T07:03:53;100288.88;;;18.71;98.33
70015;BME280;57358;51.094;6.760;2022-09-09T07:06:24;100290.13;;;18.77;96.41
70015;BME280;57358;51.094;6.760;2022-09-09T07:08:52;100292.31;;;19.01;95.45
70015;BME280;57358;51.094;6.760;2022-09-09T07:11:24;100290.34;;;19.03;94.70
70015;BME280;57358;51.094;6.760;2022-09-09T07:13:51;100300.72;;;19.06;94.15
70015;BME280;57358;51.094;6.760;2022-09-09T07:16:19;100303.66;;;19.03;94.51
70015;BME280;57358;51.094;6.760;2022-09-09T07:18:46;100306.91;;;18.87;94.91
70015;BME280;57358;51.094;6.760;2022-09-09T07:21:14;100107.50;;;17.64;94.89
70015;BME280;57358;51.094;6.760;2022-09-09T07:23:41;100305.78;;;18.90;95.53
70015;BME280;57358;51.094;6.760;2022-09-09T07:26:16;100315.13;;;19.04;93.97
70015;BME280;57358;51.094;6.760;2022-09-09T07:28:43;100297.91;;;19.08;89.97
70015;BME280;57358;51.094;6.760;2022-09-09T07:33:44;100316.81;;;19.70;87.58
70015;BME280;57358;51.094;6.760;2022-09-09T07:36:25;100314.47;;;19.67;85.86
70015;BME280;57358;51.094;6.760;2022-09-09T07:39:00;100322.13;;;19.70;86.40
70015;BME280;57358;51.094;6.760;2022-09-09T07:41:36;100305.34;;;19.69;86.07
70015;BME280;57358;51.094;6.760;2022-09-09T07:44:06;100336.63;;;19.58;83.74
70015;BME280;57358;51.094;6.760;2022-09-09T07:46:33;100341.81;;;19.59;84.53
70015;BME280;57358;51.094;6.760;2022-09-09T07:49:00;100320.13;;;19.54;85.01
70015;BME280;57358;51.094;6.760;2022-09-09T07:51:31;100349.91;;;19.67;83.67
70015;BME280;57358;51.094;6.760;2022-09-09T07:54:00;100286.16;;;19.38;83.54
70015;BME280;57358;51.094;6.760;2022-09-09T07:56:29;100349.78;;;19.69;81.84
70015;BME280;57358;51.094;6.760;2022-09-09T07:58:56;100356.56;;;19.53;84.19
70015;BME280;57358;51.094;6.760;2022-09-09T08:01:30;100354.13;;;19.60;84.43
70015;BME280;57358;51.094;6.760;2022-09-09T08:04:06;100159.16;;;18.28;81.13
70015;BME280;57358;51.094;6.760;2022-09-09T08:06:36;100356.09;;;19.30;79.75
70015;BME280;57358;51.094;6.760;2022-09-09T08:09:04;100364.38;;;19.18;78.85
70015;BME280;57358;51.094;6.760;2022-09-09T08:11:31;100360.44;;;19.22;80.37
70015;BME280;57358;51.094;6.760;2022-09-09T08:14:04;100360.44;;;19.22;80.25
70015;BME280;57358;51.094;6.760;2022-09-09T08:16:33;100354.22;;;19.41;78.85
70015;BME280;57358;51.094;6.760;2022-09-09T08:19:03;100362.75;;;19.44;76.76
70015;BME280;57358;51.094;6.760;2022-09-09T08:21:31;100358.59;;;19.69;78.01
70015;BME280;57358;51.094;6.760;2022-09-09T08:24:00;100191.75;;;18.77;76.93
70015;BME280;57358;51.094;6.760;2022-09-09T08:26:29;100357.25;;;19.93;74.75
70015;BME280;57358;51.094;6.760;2022-09-09T08:28:57;100164.38;;;18.67;74.38
70015;BME280;57358;51.094;6.760;2022-09-09T08:33:54;100353.75;;;19.92;75.95
70015;BME280;57358;51.094;6.760;2022-09-09T08:36:22;100356.22;;;19.94;76.57
70015;BME280;57358;51.094;6.760;2022-09-09T08:38:51;100338.41;;;19.77;76.95
70015;BME280;57358;51.094;6.760;2022-09-09T08:44:10;100359.34;;;20.17;76.85
70015;BME280;57358;51.094;6.760;2022-09-09T08:46:52;100363.59;;;20.28;75.42
70015;BME280;57358;51.094;6.760;2022-09-09T08:49:39;100370.69;;;19.91;73.87
70015;BME280;57358;51.094;6.760;2022-09-09T08:52:16;100375.16;;;19.73;72.78
70015;BME280;57358;51.094;6.760;2022-09-09T08:54:45;100344.03;;;19.64;73.59
70015;BME280;57358;51.094;6.760;2022-09-09T08:57:26;100362.75;;;19.82;74.07
70015;BME280;57358;51.094;6.760;2022-09-09T08:59:55;100371.94;;;19.97;74.17
70015;BME280;57358;51.094;6.760;2022-09-09T09:02:28;100377.81;;;20.01;73.31
70015;BME280;57358;51.094;6.760;2022-09-09T09:05:09;100361.72;;;19.92;73.78
70015;BME280;57358;51.094;6.760;2022-09-09T09:07:54;100378.91;;;19.98;72.84
70015;BME280;57358;51.094;6.760;2022-09-09T09:13:20;100397.16;;;19.56;72.42
70015;BME280;57358;51.094;6.760;2022-09-09T09:16:02;100400.63;;;19.66;73.58
70015;BME280;57358;51.094;6.760;2022-09-09T09:18:32;100192.38;;;18.51;74.41
70015;BME280;57358;51.094;6.760;2022-09-09T09:24:00;100396.34;;;19.92;71.12
70015;BME280;57358;51.094;6.760;2022-09-09T09:26:31;100395.34;;;19.93;70.15
70015;BME280;57358;51.094;6.760;2022-09-09T09:29:03;100400.44;;;20.15;71.71
70015;BME280;57358;51.094;6.760;2022-09-09T09:31:34;100361.72;;;19.92;69.64
70015;BME280;57358;51.094;6.760;2022-09-09T09:34:01;100388.25;;;20.30;69.58
70015;BME280;57358;51.094;6.760;2022-09-09T09:36:57;100386.06;;;20.25;71.52
70015;BME280;57358;51.094;6.760;2022-09-09T09:39:26;100375.38;;;19.70;71.16
70015;BME280;57358;51.094;6.760;2022-09-09T09:42:16;100396.69;;;20.07;70.69
70015;BME280;57358;51.094;6.760;2022-09-09T09:44:49;100393.69;;;20.10;70.95
70015;BME280;57358;51.094;6.760;2022-09-09T09:47:20;100397.88;;;20.23;70.96
70015;BME280;57358;51.094;6.760;2022-09-09T09:49:58;100221.47;;;19.38;70.89
70015;BME280;57358;51.094;6.760;2022-09-09T09:52:28;100396.66;;;20.35;70.40
70015;BME280;57358;51.094;6.760;2022-09-09T09:54:56;100401.59;;;20.30;70.59
70015;BME280;57358;51.094;6.760;2022-09-09T09:57:28;100244.16;;;19.60;70.93
70015;BME280;57358;51.094;6.760;2022-09-09T10:00:15;100398.22;;;20.74;70.16
70015;BME280;57358;51.094;6.760;2022-09-09T10:02:44;100395.06;;;20.96;69.12
70015;BME280;57358;51.094;6.760;2022-09-09T10:07:40;100322.03;;;20.97;67.40
70015;BME280;57358;51.094;6.760;2022-09-09T10:10:13;100307.03;;;20.96;66.68
70015;BME280;57358;51.094;6.760;2022-09-09T10:12:57;100378.59;;;21.27;67.68
70015;BME280;57358;51.094;6.760;2022-09-09T10:21:30;100369.09;;;21.59;67.62
70015;BME280;57358;51.094;6.760;2022-09-09T10:29:44;100357.69;;;22.25;65.30
70015;BME280;57358;51.094;6.760;2022-09-09T10:34:56;100370.66;;;22.12;64.49
70015;BME280;57358;51.094;6.760;2022-09-09T10:42:47;100376.31;;;21.66;64.79
70015;BME280;57358;51.094;6.760;2022-09-09T10:45:21;100350.28;;;21.34;65.84
70015;BME280;57358;51.094;6.760;2022-09-09T10:54:22;100377.28;;;21.31;65.73
70015;BME280;57358;51.094;6.760;2022-09-09T10:56:57;100216.78;;;20.39;67.26
70015;BME280;57358;51.094;6.760;2022-09-09T10:59:29;100365.56;;;21.24;66.82
70015;BME280;57358;51.094;6.760;2022-09-09T11:02:31;100375.84;;;21.19;68.37
70015;BME280;57358;51.094;6.760;2022-09-09T11:07:39;100389.41;;;20.45;78.72
70015;BME280;57358;51.094;6.760;2022-09-09T11:10:23;100384.53;;;20.23;79.82
70015;BME280;57358;51.094;6.760;2022-09-09T11:12:54;100387.66;;;20.36;81.21
70015;BME280;57358;51.094;6.760;2022-09-09T11:15:29;100388.59;;;20.27;81.99
70015;BME280;57358;51.094;6.760;2022-09-09T11:18:01;100399.75;;;20.30;80.19
70015;BME280;57358;51.094;6.760;2022-09-09T11:20:29;100381.16;;;20.03;78.40
70015;BME280;57358;51.094;6.760;2022-09-09T11:23:01;100401.34;;;20.23;80.33
70015;BME280;57358;51.094;6.760;2022-09-09T11:25:36;100374.25;;;20.28;80.62
70015;BME280;57358;51.094;6.760;2022-09-09T11:30:58;100379.13;;;20.86;82.69
70015;BME280;57358;51.094;6.760;2022-09-09T11:44:34;100366.53;;;21.75;75.48
70015;BME280;57358;51.094;6.760;2022-09-09T11:47:00;100202.44;;;20.14;73.04
70015;BME280;57358;51.094;6.760;2022-09-09T11:49:42;100378.75;;;20.99;73.33
70015;BME280;57358;51.094;6.760;2022-09-09T11:52:42;100396.97;;;20.50;74.38
70015;BME280;57358;51.094;6.760;2022-09-09T11:55:28;100393.22;;;20.25;73.55
70015;BME280;57358;51.094;6.760;2022-09-09T11:58:01;100340.47;;;19.83;74.86
70015;BME280;57358;51.094;6.760;2022-09-09T12:00:40;100398.81;;;20.04;75.15
70015;BME280;57358;51.094;6.760;2022-09-09T12:03:41;100207.22;;;19.01;76.23
70015;BME280;57358;51.094;6.760;2022-09-09T12:06:17;100404.56;;;20.27;76.10
70015;BME280;57358;51.094;6.760;2022-09-09T12:08:50;100385.84;;;20.37;76.23
70015;BME280;57358;51.094;6.760;2022-09-09T12:11:26;100389.13;;;20.84;75.38
70015;BME280;57358;51.094;6.760;2022-09-09T12:13:59;100390.44;;;21.06;75.83
70015;BME280;57358;51.094;6.760;2022-09-09T12:16:33;100380.38;;;21.44;72.51
70015;BME280;57358;51.094;6.760;2022-09-09T12:19:15;100382.06;;;21.80;70.24
70015;BME280;57358;51.094;6.760;2022-09-09T12:21:49;100374.56;;;22.26;70.25
70015;BME280;57358;51.094;6.760;2022-09-09T12:24:37;100367.56;;;22.82;69.92
70015;BME280;57358;51.094;6.760;2022-09-09T12:27:22;100365.06;;;22.73;67.05
70015;BME280;57358;51.094;6.760;2022-09-09T12:32:25;100370.72;;;22.45;64.51
70015;BME280;57358;51.094;6.760;2022-09-09T12:34:53;100359.88;;;22.55;66.02
70015;BME280;57358;51.094;6.760;2022-09-09T12:38:00;100360.22;;;22.43;67.64
70015;BME280;57358;51.094;6.760;2022-09-09T12:40:32;100370.13;;;22.08;68.09
70015;BME280;57358;51.094;6.760;2022-09-09T12:43:02;100385.94;;;21.85;68.58
70015;BME280;57358;51.094;6.760;2022-09-09T12:45:42;100415.16;;;20.55;83.03
70015;BME280;57358;51.094;6.760;2022-09-09T12:48:10;100272.06;;;18.90;94.54
70015;BME280;57358;51.094;6.760;2022-09-09T12:50:44;100424.44;;;19.67;100.00
70015;BME280;57358;51.094;6.760;2022-09-09T12:53:23;100252.06;;;19.24;100.00
70015;BME280;57358;51.094;6.760;2022-09-09T12:55:56;100394.13;;;21.05;100.00
70015;BME280;57358;51.094;6.760;2022-09-09T12:58:24;100374.78;;;21.56;97.38
70015;BME280;57358;51.094;6.760;2022-09-09T13:00:52;100358.09;;;22.13;96.64
70015;BME280;57358;51.094;6.760;2022-09-09T13:03:21;100371.06;;;22.42;88.83
70015;BME280;57358;51.094;6.760;2022-09-09T13:05:49;100364.25;;;22.56;88.31
70015;BME280;57358;51.094;6.760;2022-09-09T13:08:16;100363.06;;;22.66;89.12
70015;BME280;57358;51.094;6.760;2022-09-09T13:10:47;100346.00;;;22.76;84.19
70015;BME280;57358;51.094;6.760;2022-09-09T13:13:26;100348.34;;;22.54;83.75
70015;BME280;57358;51.094;6.760;2022-09-09T13:15:56;100350.50;;;22.50;81.18
70015;BME280;57358;51.094;6.760;2022-09-09T13:18:34;100351.00;;;22.87;80.30
70015;BME280;57358;51.094;6.760;2022-09-09T13:21:02;100272.19;;;21.75;78.83
70015;BME280;57358;51.094;6.760;2022-09-09T13:23:31;100346.59;;;22.12;81.01
70015;BME280;57358;51.094;6.760;2022-09-09T13:26:04;100348.09;;;22.23;83.14
70015;BME280;57358;51.094;6.760;2022-09-09T13:28:32;100168.22;;;21.81;79.74
70015;BME280;57358;51.094;6.760;2022-09-09T13:31:00;100339.31;;;22.88;78.16
70015;BME280;57358;51.094;6.760;2022-09-09T13:33:38;100339.25;;;23.29;79.11
70015;BME280;57358;51.094;6.760;2022-09-09T13:36:06;100294.63;;;22.97;74.51
70015;BME280;57358;51.094;6.760;2022-09-09T13:38:54;100317.03;;;23.20;73.92
70015;BME280;57358;51.094;6.760;2022-09-09T13:41:24;100331.63;;;23.09;74.09
70015;BME280;57358;51.094;6.760;2022-09-09T13:43:51;100329.63;;;22.46;73.10
70015;BME280;57358;51.094;6.760;2022-09-09T13:46:35;100327.63;;;22.40;73.44
70015;BME280;57358;51.094;6.760;2022-09-09T13:51:42;100326.75;;;22.31;73.74
70015;BME280;57358;51.094;6.760;2022-09-09T13:54:11;100329.03;;;21.93;73.92
70015;BME280;57358;51.094;6.760;2022-09-09T13:56:39;100313.16;;;22.00;74.41
70015;BME280;57358;51.094;6.760;2022-09-09T13:59:11;100321.16;;;21.83;74.39
70015;BME280;57358;51.094;6.760;2022-09-09T14:01:37;100325.72;;;22.07;75.27
70015;BME280;57358;51.094;6.760;2022-09-09T14:04:04;100305.88;;;22.51;75.35
70015;BME280;57358;51.094;6.760;2022-09-09T14:06:35;100331.78;;;22.59;71.31
70015;BME280;57358;51.094;6.760;2022-09-09T14:09:06;100120.91;;;20.82;73.34
70015;BME280;57358;51.094;6.760;2022-09-09T14:11:33;100330.13;;;22.33;71.10
70015;BME280;57358;51.094;6.760;2022-09-09T14:13:59;100332.13;;;22.39;69.02
70015;BME280;57358;51.094;6.760;2022-09-09T14:16:28;100329.94;;;22.43;69.82
70015;BME280;57358;51.094;6.760;2022-09-09T14:18:55;100336.56;;;22.06;68.73
70015;BME280;57358;51.094;6.760;2022-09-09T14:21:26;100163.84;;;21.05;69.76
70015;BME280;57358;51.094;6.760;2022-09-09T14:23:53;100337.59;;;22.13;72.69
70015;BME280;57358;51.094;6.760;2022-09-09T14:26:23;100143.28;;;20.89;70.45
70015;BME280;57358;51.094;6.760;2022-09-09T14:28:50;100318.25;;;21.68;72.70
70015;BME280;57358;51.094;6.760;2022-09-09T14:31:22;100329.06;;;21.59;74.69
70015;BME280;57358;51.094;6.760;2022-09-09T14:33:48;100336.25;;;21.32;74.09
70015;BME280;57358;51.094;6.760;2022-09-09T14:36:15;100356.00;;;20.87;74.52
70015;BME280;57358;51.094;6.760;2022-09-09T14:38:41;100374.81;;;20.67;76.07
70015;BME280;57358;51.094;6.760;2022-09-09T14:41:13;100382.31;;;20.36;77.93
70015;BME280;57358;51.094;6.760;2022-09-09T14:43:43;100333.88;;;19.87;85.21
70015;BME280;57358;51.094;6.760;2022-09-09T14:46:12;100385.38;;;19.96;87.53
70015;BME280;57358;51.094;6.760;2022-09-09T14:48:40;100379.34;;;19.66;91.91
70015;BME280;57358;51.094;6.760;2022-09-09T14:51:08;100407.00;;;19.92;91.84